Time;durP1;ratioP1;P1;durP2;ratioP2;P2;SDS_P1;SDS_P2;PMS_P1;PMS_P2;Temp;Humidity;BMP_temperature;BMP_pressure;BME280_temperature;BME280_humidity;BME280_pressure;Samples;Min_cycle;Max_cycle;Signal;HPM_P1;HPM_P2
2021/07/20 00:00:27;;;;;;;;;;;;;;;22.58;44.82;101501.53;5025142;28;99165;-78
2021/07/20 00:02:54;;;;;;;;;;;;;;;22.57;45.36;101498.97;5019258;28;96875;-77
2021/07/20 00:05:23;;;;;;;;;;;;;;;22.40;42.91;101497.50;5022220;28;98939;-77
2021/07/20 00:07:50;;;;;;;;;;;;;;;22.60;42.58;101496.91;5019778;28;99197;-77
2021/07/20 00:10:21;;;;;;;;;;;;;;;22.63;42.26;101493.13;5025205;28;96893;-77
2021/07/20 00:12:47;;;;;;;;;;;;;;;22.60;44.27;101501.44;5017311;28;96732;-77
2021/07/20 00:15:14;;;;;;;;;;;;;;;22.70;44.65;101497.09;5016160;28;98987;-77
2021/07/20 00:17:42;;;;;;;;;;;;;;;22.67;44.45;101494.63;5023900;28;98003;-77
2021/07/20 00:20:09;;;;;;;;;;;;;;;22.66;43.72;101498.28;5027221;28;98949;-76
2021/07/20 00:22:35;;;;;;;;;;;;;;;22.78;43.43;101499.22;5018829;28;98325;-77
2021/07/20 00:25:02;;;;;;;;;;;;;;;22.83;42.13;101494.38;5015525;28;99479;-76
2021/07/20 00:27:29;;;;;;;;;;;;;;;22.77;42.78;101495.69;5016348;28;99133;-76
2021/07/20 00:29:56;;;;;;;;;;;;;;;22.80;42.45;101495.44;5017543;28;96794;-75
2021/07/20 00:32:22;;;;;;;;;;;;;;;22.80;41.81;101491.91;5023932;28;96874;-75
2021/07/20 00:34:49;;;;;;;;;;;;;;;22.84;42.00;101496.09;5014510;28;98369;-76
2021/07/20 00:37:15;;;;;;;;;;;;;;;22.68;41.36;101493.66;5015493;28;99125;-76
2021/07/20 00:39:41;;;;;;;;;;;;;;;22.58;41.82;101490.75;5016814;27;98309;-77
2021/07/20 00:42:08;;;;;;;;;;;;;;;22.79;41.66;101492.88;5014247;28;98422;-77
2021/07/20 00:44:38;;;;;;;;;;;;;;;22.87;41.59;101490.47;5017744;28;99346;-76
2021/07/20 00:47:05;;;;;;;;;;;;;;;22.79;41.27;101498.25;5017468;28;99134;-77
2021/07/20 00:49:31;;;;;;;;;;;;;;;22.83;41.32;101489.00;5025039;28;96932;-78
2021/07/20 00:51:57;;;;;;;;;;;;;;;22.93;40.68;101495.38;5014989;28;97066;-78
2021/07/20 00:54:24;;;;;;;;;;;;;;;22.87;42.07;101490.47;5022628;27;99439;-78
2021/07/20 00:56:51;;;;;;;;;;;;;;;22.71;41.47;101484.50;5020908;28;97643;-77
2021/07/20 00:59:18;;;;;;;;;;;;;;;22.79;40.89;101491.03;5025216;28;96851;-77
2021/07/20 01:01:45;;;;;;;;;;;;;;;22.45;41.60;101478.34;5029664;28;97237;-76
2021/07/20 01:04:12;;;;;;;;;;;;;;;22.30;42.19;101480.31;5023787;28;98936;-77
2021/07/20 01:06:39;;;;;;;;;;;;;;;22.77;41.96;101484.94;5015605;28;99094;-76
2021/07/20 01:09:06;;;;;;;;;;;;;;;22.91;41.31;101481.16;5015757;28;97151;-78
2021/07/20 01:11:33;;;;;;;;;;;;;;;22.78;40.88;101478.53;5016410;28;96964;-77
2021/07/20 01:14:01;;;;;;;;;;;;;;;22.86;40.80;101475.28;5030308;28;99191;-75
2021/07/20 01:16:28;;;;;;;;;;;;;;;22.86;41.00;101475.28;5028960;28;99140;-76
2021/07/20 01:18:56;;;;;;;;;;;;;;;22.76;40.63;101467.03;5031076;28;96911;-76
2021/07/20 01:21:23;;;;;;;;;;;;;;;22.70;40.83;101477.38;5030230;27;96759;-77
2021/07/20 01:23:52;;;;;;;;;;;;;;;22.62;40.98;101470.72;5016462;28;99333;-76
2021/07/20 01:26:19;;;;;;;;;;;;;;;22.38;41.52;101471.69;5015130;28;98831;-77
2021/07/20 01:28:46;;;;;;;;;;;;;;;22.40;42.10;101475.09;5015539;28;96956;-77
2021/07/20 01:31:16;;;;;;;;;;;;;;;22.57;41.67;101475.59;5016833;28;98869;-77
2021/07/20 01:33:44;;;;;;;;;;;;;;;22.59;41.55;101486.22;5021036;28;98949;-77
2021/07/20 01:36:11;;;;;;;;;;;;;;;22.38;42.65;101474.38;5023820;28;97996;-77
2021/07/20 01:38:38;;;;;;;;;;;;;;;22.46;42.04;101478.19;5020503;28;97061;-77
2021/07/20 01:41:10;;;;;;;;;;;;;;;22.33;42.46;101477.38;5021398;28;97060;-77
2021/07/20 01:43:39;;;;;;;;;;;;;;;22.53;41.95;101471.41;5019442;28;99274;-77
2021/07/20 01:46:06;;;;;;;;;;;;;;;22.69;42.03;101471.13;5023029;27;98892;-77
2021/07/20 01:48:35;;;;;;;;;;;;;;;22.50;42.14;101474.34;5021399;27;97261;-77
2021/07/20 01:51:02;;;;;;;;;;;;;;;22.70;41.95;101472.00;5018625;28;98416;-77
2021/07/20 01:53:29;;;;;;;;;;;;;;;22.64;41.75;101468.75;5020114;28;99275;-77
2021/07/20 01:55:55;;;;;;;;;;;;;;;22.59;41.72;101465.56;5025236;28;99518;-77
2021/07/20 01:58:23;;;;;;;;;;;;;;;22.41;41.86;101466.06;5038753;28;96850;-77
2021/07/20 02:00:49;;;;;;;;;;;;;;;22.60;41.39;101466.41;5034880;28;96812;-77
2021/07/20 02:03:29;;;;;;;;;;;;;;;22.55;41.31;101464.06;5038515;28;99299;-77
2021/07/20 02:08:40;;;;;;;;;;;;;;;22.54;41.58;101473.13;5017512;28;96834;-77
2021/07/20 02:11:09;;;;;;;;;;;;;;;22.41;41.79;101471.44;5018856;28;97443;-77
2021/07/20 02:13:42;;;;;;;;;;;;;;;22.49;41.47;101469.06;5017903;28;102791;-77
2021/07/20 02:16:10;;;;;;;;;;;;;;;22.52;41.38;101469.66;5032587;28;98845;-77
2021/07/20 02:18:36;;;;;;;;;;;;;;;22.62;41.19;101468.03;5017428;28;96948;-77
2021/07/20 02:21:05;;;;;;;;;;;;;;;22.64;41.11;101468.75;5017921;28;97718;-76
2021/07/20 02:23:32;;;;;;;;;;;;;;;22.57;41.39;101467.53;5017893;28;99526;-77
2021/07/20 02:25:59;;;;;;;;;;;;;;;22.33;42.04;101472.00;5021190;28;98470;-77
2021/07/20 02:28:27;;;;;;;;;;;;;;;22.66;41.48;101469.50;5017576;28;96723;-77
2021/07/20 02:31:07;;;;;;;;;;;;;;;22.87;41.48;101474.28;5020321;28;96921;-77
2021/07/20 02:33:35;;;;;;;;;;;;;;;22.78;41.31;101464.19;5028488;28;99688;-77
2021/07/20 02:36:01;;;;;;;;;;;;;;;22.81;41.48;101472.06;5017538;28;99181;-76
2021/07/20 02:38:29;;;;;;;;;;;;;;;22.53;41.87;101462.44;5018442;28;97145;-77
2021/07/20 02:40:56;;;;;;;;;;;;;;;22.56;41.55;101468.50;5025427;27;97538;-77
2021/07/20 02:43:23;;;;;;;;;;;;;;;22.27;42.36;101465.22;5025827;27;98378;-77
2021/07/20 02:45:49;;;;;;;;;;;;;;;22.69;41.54;101460.34;5017178;28;100450;-77
2021/07/20 02:48:17;;;;;;;;;;;;;;;22.78;41.45;101464.19;5022957;28;97712;-78
2021/07/20 02:50:44;;;;;;;;;;;;;;;22.69;41.40;101464.88;5032451;27;96898;-78
2021/07/20 02:53:11;;;;;;;;;;;;;;;22.85;41.53;101465.47;5019590;27;98959;-78
2021/07/20 02:55:38;;;;;;;;;;;;;;;22.65;41.97;101465.09;5017464;28;99232;-78
2021/07/20 02:58:05;;;;;;;;;;;;;;;22.45;42.40;101463.00;5019132;28;98673;-77
2021/07/20 03:00:32;;;;;;;;;;;;;;;22.55;42.51;101457.81;5034003;28;96848;-78
2021/07/20 03:02:58;;;;;;;;;;;;;;;22.58;42.61;101462.97;5020802;28;99294;-77
2021/07/20 03:05:26;;;;;;;;;;;;;;;22.83;41.79;101453.97;5032681;27;97802;-77
2021/07/20 03:07:54;;;;;;;;;;;;;;;22.81;41.57;101454.06;5019527;28;96926;-78
2021/07/20 03:10:22;;;;;;;;;;;;;;;22.77;41.39;101462.50;5021588;28;99245;-77
2021/07/20 03:12:50;;;;;;;;;;;;;;;22.52;41.60;101464.28;5019178;28;99298;-77
2021/07/20 03:15:16;;;;;;;;;;;;;;;22.73;41.54;101467.25;5018574;28;98813;-77
2021/07/20 03:17:43;;;;;;;;;;;;;;;22.82;41.49;101463.88;5020618;28;98479;-78
2021/07/20 03:20:11;;;;;;;;;;;;;;;22.57;41.76;101458.56;5021969;28;96834;-77
2021/07/20 03:22:40;;;;;;;;;;;;;;;22.54;41.96;101462.34;5028484;28;99214;-78
2021/07/20 03:25:08;;;;;;;;;;;;;;;22.22;42.27;101461.16;5018842;28;98371;-77
2021/07/20 03:27:35;;;;;;;;;;;;;;;22.49;42.06;101464.53;5021594;28;97093;-77
2021/07/20 03:30:02;;;;;;;;;;;;;;;22.64;41.56;101457.16;5018311;28;96810;-77
2021/07/20 03:32:29;;;;;;;;;;;;;;;22.85;40.83;101469.00;5017729;28;99265;-78
2021/07/20 03:34:56;;;;;;;;;;;;;;;22.88;41.01;101462.56;5025606;28;98838;-78
2021/07/20 03:37:23;;;;;;;;;;;;;;;22.67;40.77;101470.38;5036320;27;97017;-76
2021/07/20 03:39:53;;;;;;;;;;;;;;;22.62;40.71;101468.03;5023127;28;97599;-76
2021/07/20 03:42:20;;;;;;;;;;;;;;;22.65;40.96;101472.31;5018412;28;99004;-76
2021/07/20 03:44:46;;;;;;;;;;;;;;;22.31;41.70;101476.66;5031124;27;97106;-75
2021/07/20 03:47:14;;;;;;;;;;;;;;;22.50;41.93;101487.81;5015807;28;98671;-76
2021/07/20 03:49:41;;;;;;;;;;;;;;;22.13;43.11;101486.91;5017162;28;97014;-78
2021/07/20 03:52:10;;;;;;;;;;;;;;;22.33;42.96;101480.06;5025616;27;99133;-76
2021/07/20 03:54:37;;;;;;;;;;;;;;;22.25;43.17;101482.50;5025181;28;99324;-77
2021/07/20 03:57:06;;;;;;;;;;;;;;;22.54;42.55;101483.88;5029231;28;96832;-77
2021/07/20 03:59:34;;;;;;;;;;;;;;;22.51;42.60;101480.59;5014447;27;97144;-76
2021/07/20 04:02:01;;;;;;;;;;;;;;;22.47;42.76;101479.06;5027726;28;98874;-76
2021/07/20 04:04:29;;;;;;;;;;;;;;;22.72;42.27;101480.78;5014951;28;99292;-76
2021/07/20 04:06:57;;;;;;;;;;;;;;;22.41;42.68;101475.00;5028900;28;97317;-77
2021/07/20 04:09:24;;;;;;;;;;;;;;;22.21;43.39;101475.59;5016789;28;97351;-77
2021/07/20 04:11:51;;;;;;;;;;;;;;;21.96;43.65;101467.56;5021342;28;99145;-77
2021/07/20 04:14:19;;;;;;;;;;;;;;;21.86;44.17;101470.88;5026699;28;99190;-78
2021/07/20 04:16:46;;;;;;;;;;;;;;;22.28;43.15;101471.47;5018860;27;98888;-77
2021/07/20 04:19:14;;;;;;;;;;;;;;;22.52;42.47;101463.41;5017696;28;96911;-77
2021/07/20 04:21:42;;;;;;;;;;;;;;;22.46;42.51;101463.88;5016090;28;98253;-76
2021/07/20 04:24:08;;;;;;;;;;;;;;;21.62;44.08;101463.69;5025678;28;99727;-77
2021/07/20 04:26:35;;;;;;;;;;;;;;;22.20;43.40;101476.56;5015272;28;98496;-78
2021/07/20 04:29:01;;;;;;;;;;;;;;;22.47;42.44;101476.38;5016322;28;96964;-76
2021/07/20 04:31:30;;;;;;;;;;;;;;;22.58;42.14;101479.97;5014536;28;98905;-77
2021/07/20 04:33:57;;;;;;;;;;;;;;;21.90;43.85;101470.66;5015689;28;99636;-76
2021/07/20 04:36:24;;;;;;;;;;;;;;;22.53;42.69;101474.09;5015828;28;98735;-75
2021/07/20 04:38:51;;;;;;;;;;;;;;;22.63;42.78;101471.59;5017387;28;96813;-76
2021/07/20 04:41:18;;;;;;;;;;;;;;;22.83;42.59;101471.00;5024940;28;98065;-77
2021/07/20 04:43:45;;;;;;;;;;;;;;;23.00;42.32;101470.56;5020834;28;99328;-76
2021/07/20 04:46:12;;;;;;;;;;;;;;;23.03;42.10;101473.03;5017920;28;98456;-76
2021/07/20 04:48:40;;;;;;;;;;;;;;;23.12;41.87;101473.28;5017304;28;97003;-77
2021/07/20 04:51:07;;;;;;;;;;;;;;;23.13;41.90;101481.25;5032753;28;99233;-76
2021/07/20 04:53:34;;;;;;;;;;;;;;;23.11;41.81;101483.22;5025423;27;98827;-76
2021/07/20 04:56:01;;;;;;;;;;;;;;;23.25;41.88;101485.72;5018039;28;96927;-76
2021/07/20 04:58:27;;;;;;;;;;;;;;;23.24;42.12;101491.22;5023624;28;96973;-75
2021/07/20 05:00:54;;;;;;;;;;;;;;;23.34;41.54;101489.53;5027253;28;99180;-76
2021/07/20 05:03:22;;;;;;;;;;;;;;;23.00;42.40;101496.66;5024473;28;99036;-77
2021/07/20 05:05:52;;;;;;;;;;;;;;;23.18;42.04;101489.84;5021557;28;96780;-77
2021/07/20 05:08:19;;;;;;;;;;;;;;;22.59;42.81;101491.63;5038189;27;97013;-76
2021/07/20 05:10:47;;;;;;;;;;;;;;;23.25;41.49;101490.25;5019265;28;98991;-76
2021/07/20 05:13:15;;;;;;;;;;;;;;;22.72;42.81;101492.44;5026910;28;98884;-77
2021/07/20 05:15:41;;;;;;;;;;;;;;;23.10;42.12;101488.75;5025650;28;96971;-77
2021/07/20 05:18:08;;;;;;;;;;;;;;;23.28;41.67;101484.63;5024942;27;96960;-77
2021/07/20 05:20:35;;;;;;;;;;;;;;;23.52;41.45;101496.25;5027073;28;98562;-80
2021/07/20 05:23:03;;;;;;;;;;;;;;;23.48;41.44;101500.16;5047486;27;98040;-79
2021/07/20 05:25:29;;;;;;;;;;;;;;;23.11;42.11;101487.72;5047328;28;96113;-79
2021/07/20 05:27:57;;;;;;;;;;;;;;;22.88;43.00;101502.97;5058761;27;96697;-78
2021/07/20 05:30:23;;;;;;;;;;;;;;;23.05;42.51;101502.53;5044031;28;100453;-79
2021/07/20 05:32:50;;;;;;;;;;;;;;;23.28;42.11;101495.41;5047971;27;97901;-80
2021/07/20 05:35:17;;;;;;;;;;;;;;;23.28;42.14;101501.66;5028058;28;97130;-79
2021/07/20 05:37:44;;;;;;;;;;;;;;;22.93;43.03;101506.16;5020467;28;96856;-76
2021/07/20 05:40:14;;;;;;;;;;;;;;;23.51;42.10;101504.44;5023058;28;98919;-77
2021/07/20 05:42:41;;;;;;;;;;;;;;;23.62;41.65;101499.09;5019694;28;99129;-77
2021/07/20 05:45:08;;;;;;;;;;;;;;;23.62;41.42;101499.09;5019437;28;97687;-77
2021/07/20 05:47:35;;;;;;;;;;;;;;;23.40;41.41;101495.31;5019884;27;97036;-76
2021/07/20 05:50:01;;;;;;;;;;;;;;;23.38;41.50;101494.56;5035813;28;98129;-76
2021/07/20 05:52:28;;;;;;;;;;;;;;;23.58;41.28;101492.19;5033652;27;100836;-76
2021/07/20 05:54:55;;;;;;;;;;;;;;;23.29;41.79;101497.13;5037127;27;96899;-77
2021/07/20 05:57:25;;;;;;;;;;;;;;;23.66;41.32;101495.16;5021153;27;96956;-79
2021/07/20 05:59:52;;;;;;;;;;;;;;;23.63;41.12;101506.22;5032566;28;99954;-76
2021/07/20 06:02:20;;;;;;;;;;;;;;;23.21;42.16;101508.50;5025233;28;98924;-77
2021/07/20 06:04:46;;;;;;;;;;;;;;;23.69;41.03;101506.59;5028425;28;97137;-76
2021/07/20 06:07:12;;;;;;;;;;;;;;;;;;5022858;28;97888;-77
2021/07/20 06:09:39;;;;;;;;;;;;;;;23.43;41.94;101510.44;5016404;28;97938;-78
2021/07/20 06:12:08;;;;;;;;;;;;;;;22.72;43.04;101519.38;5016917;28;98460;-75
2021/07/20 06:14:36;;;;;;;;;;;;;;;22.99;42.78;101519.19;5018452;28;96723;-77
2021/07/20 06:17:02;;;;;;;;;;;;;;;23.84;41.33;101515.28;5025198;27;97196;-77
2021/07/20 06:19:29;;;;;;;;;;;;;;;24.59;39.33;101515.53;5028337;27;98868;-78
2021/07/20 06:21:56;;;;;;;;;;;;;;;24.72;39.35;101518.94;5032303;27;98972;-77
2021/07/20 06:24:23;;;;;;;;;;;;;;;25.21;38.36;101515.72;5034523;27;96907;-76
2021/07/20 06:26:49;;;;;;;;;;;;;;;26.03;36.54;101513.16;5032914;27;97971;-76
2021/07/20 06:29:16;;;;;;;;;;;;;;;27.44;33.83;101521.84;5026858;28;99115;-77
2021/07/20 06:31:45;;;;;;;;;;;;;;;27.05;34.26;101515.59;5030893;28;98763;-76
2021/07/20 06:34:13;;;;;;;;;;;;;;;25.77;35.78;101524.41;5015324;28;96930;-76
2021/07/20 06:36:42;;;;;;;;;;;;;;;26.13;35.83;101520.31;5028761;28;96823;-78
2021/07/20 06:39:08;;;;;;;;;;;;;;;25.80;36.27;101525.97;5020879;28;99600;-75
2021/07/20 06:41:35;;;;;;;;;;;;;;;25.55;36.73;101527.22;5023472;28;99418;-76
2021/07/20 06:44:02;;;;;;;;;;;;;;;25.71;36.25;101524.09;5025469;28;96887;-77
2021/07/20 06:46:29;;;;;;;;;;;;;;;25.92;36.04;101527.66;5018520;27;97268;-76
2021/07/20 06:48:58;;;;;;;;;;;;;;;25.46;36.13;101535.28;5031656;28;97916;-76
2021/07/20 06:51:24;;;;;;;;;;;;;;;26.64;34.49;101529.38;5025587;28;98856;-77
2021/07/20 06:53:52;;;;;;;;;;;;;;;27.14;33.68;101532.88;5023608;28;96844;-77
2021/07/20 06:56:20;;;;;;;;;;;;;;;26.72;33.70;101527.66;5023220;27;97307;-75
2021/07/20 06:58:47;;;;;;;;;;;;;;;26.77;33.77;101530.84;5028878;27;99234;-76
2021/07/20 07:01:15;;;;;;;;;;;;;;;26.84;33.39;101531.97;5032273;27;100588;-76
2021/07/20 07:03:46;;;;;;;;;;;;;;;27.48;31.97;101526.03;5025174;28;97197;-76
2021/07/20 07:06:15;;;;;;;;;;;;;;;27.18;32.42;101539.72;5028907;28;96806;-76
2021/07/20 07:08:42;;;;;;;;;;;;;;;26.36;32.98;101533.72;5032209;27;99049;-76
2021/07/20 07:11:09;;;;;;;;;;;;;;;26.30;32.50;101532.41;5019938;27;98749;-76
2021/07/20 07:13:35;;;;;;;;;;;;;;;26.23;32.13;101533.91;5031481;27;96909;-76
2021/07/20 07:16:02;;;;;;;;;;;;;;;26.25;33.17;101531.97;5031317;28;97253;-76
2021/07/20 07:18:29;;;;;;;;;;;;;;;26.76;32.54;101545.38;5030900;27;99452;-77
2021/07/20 07:20:56;;;;;;;;;;;;;;;26.90;32.31;101541.44;5021719;28;98242;-77
2021/07/20 07:23:24;;;;;;;;;;;;;;;27.08;32.17;101547.88;5018222;28;96901;-77
2021/07/20 07:25:51;;;;;;;;;;;;;;;27.16;32.32;101539.91;5034545;28;96935;-77
2021/07/20 07:28:19;;;;;;;;;;;;;;;25.62;31.80;101544.69;5022842;28;98879;-76
2021/07/20 07:30:47;;;;;;;;;;;;;;;25.64;32.25;101542.72;5015622;27;98587;-76
2021/07/20 07:33:14;;;;;;;;;;;;;;;24.79;33.00;101549.03;5018408;28;97301;-78
2021/07/20 07:35:44;;;;;;;;;;;;;;;24.46;34.00;101544.53;5018409;28;96734;-77
2021/07/20 07:38:11;;;;;;;;;;;;;;;24.66;33.50;101546.47;5027757;28;98895;-77
2021/07/20 07:40:39;;;;;;;;;;;;;;;25.18;32.46;101551.16;5023801;27;99175;-75
2021/07/20 07:43:06;;;;;;;;;;;;;;;24.21;34.66;101541.13;5023810;28;96800;-76
2021/07/20 07:45:34;;;;;;;;;;;;;;;24.42;35.30;101545.75;5032748;28;96934;-76
2021/07/20 07:48:01;;;;;;;;;;;;;;;24.60;35.51;101542.44;5029508;28;98180;-77
2021/07/20 07:50:28;;;;;;;;;;;;;;;24.65;34.13;101542.06;5025970;27;100268;-77
2021/07/20 07:52:55;;;;;;;;;;;;;;;24.93;32.28;101549.66;5036327;28;97348;-77
2021/07/20 07:55:24;;;;;;;;;;;;;;;25.73;31.38;101544.59;5019760;27;97015;-77
2021/07/20 07:57:51;;;;;;;;;;;;;;;26.13;30.78;101533.00;5018441;28;98171;-76
2021/07/20 08:00:18;;;;;;;;;;;;;;;26.02;30.36;101544.78;5028596;28;98751;-76
2021/07/20 08:02:49;;;;;;;;;;;;;;;25.60;30.17;101543.13;5014409;28;97885;-77
2021/07/20 08:05:15;;;;;;;;;;;;;;;24.95;30.92;101553.06;5016104;28;97042;-76
2021/07/20 08:07:42;;;;;;;;;;;;;;;24.70;32.68;101555.19;5026804;28;101576;-76
2021/07/20 08:10:10;;;;;;;;;;;;;;;24.24;32.57;101550.81;5021974;27;99692;-77
2021/07/20 08:12:38;;;;;;;;;;;;;;;24.63;31.62;101539.47;5018287;28;97518;-77
2021/07/20 08:15:07;;;;;;;;;;;;;;;24.82;32.02;101546.91;5029488;28;97016;-79
2021/07/20 08:17:34;;;;;;;;;;;;;;;25.19;30.84;101557.44;5019758;28;98860;-76
2021/07/20 08:20:01;;;;;;;;;;;;;;;25.44;30.13;101543.53;5017114;28;98990;-77
2021/07/20 08:22:30;;;;;;;;;;;;;;;25.97;27.85;101536.22;5025770;28;97338;-77
2021/07/20 08:24:58;;;;;;;;;;;;;;;26.37;27.50;101535.41;5027197;28;97173;-75
2021/07/20 08:27:30;;;;;;;;;;;;;;;27.36;26.26;101532.59;5021917;28;99393;-77
2021/07/20 08:29:57;;;;;;;;;;;;;;;28.30;26.12;101534.41;5019464;28;98072;-77
2021/07/20 08:32:27;;;;;;;;;;;;;;;28.79;25.57;101530.44;5020667;28;96873;-78
2021/07/20 08:34:58;;;;;;;;;;;;;;;28.50;25.29;101535.16;5023634;28;97025;-77
2021/07/20 08:37:25;;;;;;;;;;;;;;;28.67;25.40;101522.63;5022385;28;98746;-76
2021/07/20 08:39:53;;;;;;;;;;;;;;;27.35;25.61;101539.88;5021360;28;99354;-76
2021/07/20 08:42:24;;;;;;;;;;;;;;;26.40;27.21;101535.13;5029131;28;96757;-78
2021/07/20 08:45:04;;;;;;;;;;;;;;;26.66;26.37;101543.63;5020922;28;98548;-76
2021/07/20 08:47:39;;;;;;;;;;;;;;;26.30;26.78;101536.97;5023212;28;98941;-77
2021/07/20 08:50:24;;;;;;;;;;;;;;;26.20;27.98;101531.47;5024420;28;99356;-77
2021/07/20 08:52:59;;;;;;;;;;;;;;;26.28;27.66;101536.22;5026453;28;104786;-77
2021/07/20 08:55:28;;;;;;;;;;;;;;;25.74;28.16;101530.09;5033562;28;96914;-77
2021/07/20 08:57:56;;;;;;;;;;;;;;;26.32;27.60;101535.00;5024968;28;98426;-78
2021/07/20 09:00:23;;;;;;;;;;;;;;;26.11;28.02;101537.72;5027386;28;98008;-79
2021/07/20 09:02:56;;;;;;;;;;;;;;;26.02;27.73;101527.69;5033532;27;97707;-78
2021/07/20 09:05:26;;;;;;;;;;;;;;;26.27;28.09;101534.50;5026920;28;96861;-78
2021/07/20 09:08:04;;;;;;;;;;;;;;;26.34;29.32;101530.25;5018029;28;100201;-78
2021/07/20 09:10:36;;;;;;;;;;;;;;;25.72;32.18;101536.66;5023259;28;97724;-78
2021/07/20 09:13:03;;;;;;;;;;;;;;;25.70;32.45;101538.63;5027379;27;96923;-78
2021/07/20 09:15:29;;;;;;;;;;;;;;;26.23;31.90;101535.75;5019714;28;97212;-78
2021/07/20 09:18:04;;;;;;;;;;;;;;;25.52;32.44;101537.47;5018164;28;99298;-79
2021/07/20 09:20:33;;;;;;;;;;;;;;;25.69;31.94;101537.75;5016371;28;98124;-77
2021/07/20 09:23:01;;;;;;;;;;;;;;;25.70;32.05;101539.47;5022038;28;96815;-77
2021/07/20 09:25:32;;;;;;;;;;;;;;;26.32;31.15;101535.81;5023518;28;97851;-81
2021/07/20 09:28:01;;;;;;;;;;;;;;;27.11;29.83;101533.19;5015393;28;97038;-77
2021/07/20 09:30:29;;;;;;;;;;;;;;;27.73;29.13;101540.88;5015921;28;98856;-77
2021/07/20 09:33:04;;;;;;;;;;;;;;;27.97;28.13;101533.06;5019593;28;96726;-76
2021/07/20 09:35:36;;;;;;;;;;;;;;;27.89;28.21;101537.53;5022386;28;96900;-77
2021/07/20 09:38:08;;;;;;;;;;;;;;;28.16;27.53;101526.72;5016819;28;101701;-78
2021/07/20 09:40:39;;;;;;;;;;;;;;;27.66;28.86;101537.00;5018961;28;98912;-79
2021/07/20 09:43:07;;;;;;;;;;;;;;;27.75;29.05;101542.44;5031904;28;96831;-76
2021/07/20 09:45:39;;;;;;;;;;;;;;;26.76;28.80;101539.09;5025424;28;97111;-77
2021/07/20 09:48:18;;;;;;;;;;;;;;;26.59;29.67;101543.31;5024003;28;97660;-76
2021/07/20 09:50:47;;;;;;;;;;;;;;;26.82;29.27;101538.53;5033823;28;98115;-79
2021/07/20 09:53:34;;;;;;;;;;;;;;;27.03;28.45;101539.31;5032742;27;96974;-78
2021/07/20 09:56:25;;;;;;;;;;;;;;;27.52;27.89;101530.19;5031002;28;98150;-80
2021/07/20 09:58:54;;;;;;;;;;;;;;;26.93;27.61;101530.28;4975007;28;98705;-78
2021/07/20 10:01:23;;;;;;;;;;;;;;;26.58;27.92;101538.91;5022897;28;98218;-75
2021/07/20 10:03:57;;;;;;;;;;;;;;;26.78;28.20;101534.41;5023493;27;97061;-77
2021/07/20 10:06:32;;;;;;;;;;;;;;;27.46;26.86;101533.44;5024220;27;99186;-77
2021/07/20 10:08:59;;;;;;;;;;;;;;;27.41;27.33;101540.31;5025774;28;99223;-77
2021/07/20 10:11:28;;;;;;;;;;;;;;;27.35;27.76;101539.03;5025812;28;100236;-77
2021/07/20 10:14:09;;;;;;;;;;;;;;;27.57;27.73;101538.72;5023595;28;96784;-78
2021/07/20 10:16:42;;;;;;;;;;;;;;;27.38;28.36;101533.28;5021863;28;97140;-76
2021/07/20 10:19:11;;;;;;;;;;;;;;;27.74;28.08;101531.72;5020170;28;99140;-77
2021/07/20 10:21:41;;;;;;;;;;;;;;;28.00;27.78;101529.22;5023550;28;100304;-76
2021/07/20 10:24:10;;;;;;;;;;;;;;;28.28;28.14;101525.56;5018238;28;96833;-76
2021/07/20 10:26:39;;;;;;;;;;;;;;;28.14;28.50;101528.75;5027814;28;97447;-76
2021/07/20 10:29:07;;;;;;;;;;;;;;;27.93;28.66;101511.78;5027317;28;98816;-77
2021/07/20 10:34:21;;;;;;;;;;;;;;;27.74;28.20;101520.84;5027446;28;96775;-76
2021/07/20 10:36:52;;;;;;;;;;;;;;;26.61;29.25;101526.94;5025521;28;97328;-77
2021/07/20 10:39:19;;;;;;;;;;;;;;;26.80;30.22;101524.25;5023322;28;97871;-77
2021/07/20 10:41:49;;;;;;;;;;;;;;;26.53;31.50;101531.19;5026142;28;98222;-77
2021/07/20 10:44:20;;;;;;;;;;;;;;;26.42;32.69;101527.72;5028326;28;97027;-77
2021/07/20 10:46:49;;;;;;;;;;;;;;;25.88;33.39;101523.47;5026838;27;97200;-77
2021/07/20 10:49:19;;;;;;;;;;;;;;;26.55;32.76;101531.91;5026719;28;99430;-77
2021/07/20 10:51:47;;;;;;;;;;;;;;;26.28;32.92;101523.53;5026351;28;99159;-78
2021/07/20 10:54:18;;;;;;;;;;;;;;;25.87;33.34;101523.59;5031156;28;96739;-78
2021/07/20 10:56:47;;;;;;;;;;;;;;;26.07;33.18;101533.53;5025385;28;96864;-77
2021/07/20 10:59:29;;;;;;;;;;;;;;;25.88;33.51;101528.03;5038639;28;99417;-79
2021/07/20 11:02:02;;;;;;;;;;;;;;;25.61;33.55;101528.56;5046678;28;96895;-80
2021/07/20 11:04:31;;;;;;;;;;;;;;;25.50;33.28;101537.59;5043352;28;96805;-83
2021/07/20 11:06:58;;;;;;;;;;;;;;;25.55;33.04;101531.78;5039112;28;96973;-80
2021/07/20 11:09:28;;;;;;;;;;;;;;;25.74;33.38;101532.78;5035430;27;97823;-81
2021/07/20 11:11:55;;;;;;;;;;;;;;;26.13;32.45;101525.72;5030747;28;98936;-81
2021/07/20 11:14:26;;;;;;;;;;;;;;;26.76;31.89;101525.53;5032489;28;96851;-80
2021/07/20 11:16:53;;;;;;;;;;;;;;;26.76;31.33;101520.13;5028216;28;96811;-80
2021/07/20 11:19:20;;;;;;;;;;;;;;;26.93;31.59;101517.59;5022236;28;98123;-80
2021/07/20 11:21:50;;;;;;;;;;;;;;;27.24;31.18;101520.19;5042790;28;99514;-81
2021/07/20 11:24:18;;;;;;;;;;;;;;;27.62;30.58;101516.59;5032992;28;97292;-76
2021/07/20 11:26:46;;;;;;;;;;;;;;;28.01;29.82;101515.50;5046558;28;96607;-81
2021/07/20 11:29:13;;;;;;;;;;;;;;;27.63;29.73;101526.47;5039722;28;98251;-81
2021/07/20 11:31:41;;;;;;;;;;;;;;;27.36;30.64;101511.75;5041607;27;96605;-80
2021/07/20 11:34:12;;;;;;;;;;;;;;;26.96;31.63;101519.19;5046495;27;96530;-80
2021/07/20 11:36:39;;;;;;;;;;;;;;;26.84;31.55;101520.28;5039152;27;97046;-82
2021/07/20 11:39:07;;;;;;;;;;;;;;;26.50;32.54;101519.78;5046197;28;98260;-82
2021/07/20 11:41:36;;;;;;;;;;;;;;;27.63;30.88;101507.47;5027861;27;100699;-81
2021/07/20 11:44:10;;;;;;;;;;;;;;;27.82;31.11;101521.00;5034830;28;96740;-81
2021/07/20 11:46:39;;;;;;;;;;;;;;;27.80;31.58;101520.25;5022138;28;96854;-81
2021/07/20 11:49:08;;;;;;;;;;;;;;;26.76;33.87;101520.13;5024345;28;97818;-77
2021/07/20 11:51:37;;;;;;;;;;;;;;;27.09;34.16;101521.59;5015966;28;99378;-77
2021/07/20 11:54:09;;;;;;;;;;;;;;;27.60;33.42;101521.31;5020583;28;97529;-83
2021/07/20 11:56:40;;;;;;;;;;;;;;;27.76;33.46;101518.88;5023768;28;98098;-77
2021/07/20 11:59:33;;;;;;;;;;;;;;;26.73;35.42;101531.22;5021558;28;98829;-77
2021/07/20 12:02:35;;;;;;;;;;;;;;;26.32;36.02;101514.13;5025787;28;99204;-77
2021/07/20 12:05:17;;;;;;;;;;;;;;;26.97;34.13;101520.91;5022680;28;99818;-77
2021/07/20 12:07:46;;;;;;;;;;;;;;;27.54;33.52;101519.19;5016006;28;97365;-77
2021/07/20 12:10:20;;;;;;;;;;;;;;;28.60;31.68;101507.94;5026869;28;98960;-77
2021/07/20 12:12:50;;;;;;;;;;;;;;;28.58;31.47;101505.34;5017994;28;99182;-77
2021/07/20 12:15:17;;;;;;;;;;;;;;;28.17;31.40;101505.84;5017622;28;96892;-78
2021/07/20 12:17:45;;;;;;;;;;;;;;;27.85;32.12;101512.53;5019449;28;97220;-76
2021/07/20 12:20:13;;;;;;;;;;;;;;;27.70;32.97;101514.84;5023057;28;98409;-77
2021/07/20 12:22:40;;;;;;;;;;;;;;;27.02;33.66;101518.59;5016576;28;99656;-77
2021/07/20 12:25:07;;;;;;;;;;;;;;;26.37;34.97;101513.75;5016442;28;97935;-77
2021/07/20 12:27:33;;;;;;;;;;;;;;;26.41;35.28;101518.75;5022587;28;97052;-78
2021/07/20 12:30:00;;;;;;;;;;;;;;;26.55;35.15;101507.53;5022707;28;98845;-78
2021/07/20 12:32:30;;;;;;;;;;;;;;;26.16;36.34;101506.50;5015728;28;98843;-77
2021/07/20 12:34:58;;;;;;;;;;;;;;;26.36;36.44;101504.75;5016622;28;96867;-77
2021/07/20 12:37:25;;;;;;;;;;;;;;;25.89;37.34;101502.66;5028564;27;96904;-83
2021/07/20 12:39:56;;;;;;;;;;;;;;;26.30;37.38;101504.44;5023306;28;98158;-76
2021/07/20 12:42:22;;;;;;;;;;;;;;;25.55;38.76;101505.56;5015600;28;98793;-77
2021/07/20 12:45:00;;;;;;;;;;;;;;;26.44;37.15;101507.66;5023505;27;98034;-77
2021/07/20 12:47:26;;;;;;;;;;;;;;;25.74;38.82;101502.16;5020049;28;97416;-78
2021/07/20 12:49:53;;;;;;;;;;;;;;;26.73;36.63;101504.13;5021873;28;99339;-77